Time;durP1;ratioP1;P1;durP2;ratioP2;P2;SDS_P1;SDS_P2;PMS_P1;PMS_P2;Temp;Humidity;BMP_temperature;BMP_pressure;BME280_temperature;BME280_humidity;BME280_pressure;Samples;Min_cycle;Max_cycle;Signal;HPM_P1;HPM_P2
2022/05/15 00:02:33;;;;;;;;;6.33;5.67;;;;;-147.14;100.00;58812.66;4978918;28;45209;-51
2022/05/15 00:04:59;;;;;;;;;4.00;4.00;;;;;-147.14;100.00;58812.66;4978949;28;46432;-53
2022/05/15 00:07:24;;;;;;;;;5.33;5.33;;;;;-147.14;100.00;58812.66;4978255;28;60086;-47
2022/05/15 00:09:49;;;;;;;;;5.00;5.00;;;;;-147.14;100.00;58812.66;4978557;28;45358;-47
2022/05/15 00:12:16;;;;;;;;;5.00;5.00;;;;;-147.14;100.00;58812.66;4978334;28;63538;-50
2022/05/15 00:14:42;;;;;;;;;6.33;5.00;;;;;-147.14;100.00;58812.66;4978026;28;45408;-48
2022/05/15 00:17:08;;;;;;;;;5.00;4.33;;;;;-147.14;100.00;58812.66;4979150;28;45449;-50
2022/05/15 00:19:34;;;;;;;;;3.00;3.00;;;;;-147.14;100.00;58812.66;4977939;28;46097;-49
2022/05/15 00:22:00;;;;;;;;;6.00;5.00;;;;;-147.14;100.00;58812.66;4973514;28;45302;-50
2022/05/15 00:24:28;;;;;;;;;5.00;5.00;;;;;-147.14;100.00;58812.66;4978940;28;45313;-48
2022/05/15 00:26:54;;;;;;;;;5.00;5.00;;;;;-147.14;100.00;58812.66;4978624;28;45396;-52
2022/05/15 00:29:20;;;;;;;;;6.00;5.00;;;;;-147.14;100.00;58812.66;4978175;28;46354;-49
2022/05/15 00:31:45;;;;;;;;;6.67;5.00;;;;;-147.14;100.00;58812.66;4978257;28;45368;-49
2022/05/15 00:34:10;;;;;;;;;5.00;5.00;;;;;-147.14;100.00;58812.66;4979110;28;52902;-51
2022/05/15 00:36:36;;;;;;;;;5.67;5.00;;;;;-147.14;100.00;58812.66;4981034;28;59474;-49
2022/05/15 00:39:03;;;;;;;;;5.00;3.00;;;;;-147.14;100.00;58812.66;4982106;28;46406;-49
2022/05/15 00:41:29;;;;;;;;;5.33;4.67;;;;;-147.14;100.00;58812.66;4981417;28;45383;-47
2022/05/15 00:43:56;;;;;;;;;5.00;5.00;;;;;-147.14;100.00;58812.66;4981894;28;45472;-48
2022/05/15 00:46:28;;;;;;;;;5.33;4.00;;;;;-147.14;100.00;58812.66;4982116;28;45275;-51
2022/05/15 00:48:56;;;;;;;;;5.00;5.00;;;;;-147.14;100.00;58812.66;4981648;28;46235;-50
2022/05/15 00:51:41;;;;;;;;;7.00;5.00;;;;;-147.14;100.00;58812.66;4981342;28;45635;-47
2022/05/15 00:54:29;;;;;;;;;6.33;4.67;;;;;-147.14;100.00;58812.66;4978846;28;45551;-50
2022/05/15 00:57:00;;;;;;;;;6.00;5.00;;;;;-147.14;100.00;58812.66;4979133;28;45360;-49
2022/05/15 00:59:29;;;;;;;;;10.33;6.33;;;;;-147.14;100.00;58812.66;4964031;28;45512;-48
2022/05/15 01:01:54;;;;;;;;;7.33;5.00;;;;;-147.14;100.00;58812.66;4963728;28;45424;-48
2022/05/15 01:04:20;;;;;;;;;8.67;6.00;;;;;-147.14;100.00;58812.66;4981601;28;45361;-46
2022/05/15 01:06:45;;;;;;;;;10.33;8.00;;;;;-147.14;100.00;58812.66;4980188;28;61976;-48
2022/05/15 01:09:12;;;;;;;;;8.33;7.00;;;;;-147.14;100.00;58812.66;4981802;28;45416;-48
2022/05/15 01:11:38;;;;;;;;;6.67;6.00;;;;;-147.14;100.00;58812.66;4963784;28;45460;-48
2022/05/15 01:14:06;;;;;;;;;6.00;6.00;;;;;-147.14;100.00;58812.66;4981264;28;45592;-48
2022/05/15 01:16:32;;;;;;;;;5.33;3.67;;;;;-147.14;100.00;58812.66;4981098;28;45544;-47
2022/05/15 01:18:59;;;;;;;;;11.33;9.00;;;;;-147.14;100.00;58812.66;4981498;28;45334;-46
2022/05/15 01:21:29;;;;;;;;;11.67;11.33;;;;;-147.14;100.00;58812.66;4981058;28;45470;-50
2022/05/15 01:23:56;;;;;;;;;13.33;12.00;;;;;-147.14;100.00;58812.66;4981407;28;45289;-48
2022/05/15 01:26:22;;;;;;;;;14.00;14.00;;;;;-147.14;100.00;58812.66;4981163;28;45346;-48
2022/05/15 01:28:48;;;;;;;;;11.00;11.00;;;;;-147.14;100.00;58812.66;4980241;28;46108;-48
2022/05/15 01:31:14;;;;;;;;;9.67;9.00;;;;;-147.14;100.00;58812.66;4980468;28;65886;-48
2022/05/15 01:33:39;;;;;;;;;7.33;7.33;;;;;-147.14;100.00;58812.66;4980586;28;45468;-50
2022/05/15 01:36:06;;;;;;;;;7.00;7.00;;;;;-147.14;100.00;58812.66;4981150;28;45441;-47
2022/05/15 01:38:32;;;;;;;;;6.33;5.00;;;;;-147.14;100.00;58812.66;4980450;28;45426;-48
2022/05/15 01:40:57;;;;;;;;;10.33;9.33;;;;;-147.14;100.00;58812.66;4980608;28;54702;-50
2022/05/15 01:43:22;;;;;;;;;6.67;6.00;;;;;-147.14;100.00;58812.66;4980718;28;48115;-48
2022/05/15 01:45:48;;;;;;;;;6.33;6.33;;;;;-147.14;100.00;58812.66;4979162;28;63465;-47
2022/05/15 01:48:13;;;;;;;;;5.00;5.00;;;;;-147.14;100.00;58812.66;4979860;28;67095;-48
2022/05/15 01:50:39;;;;;;;;;5.67;5.33;;;;;-147.14;100.00;58812.66;4980627;28;45453;-47
2022/05/15 01:53:05;;;;;;;;;9.00;5.00;;;;;-147.14;100.00;58812.66;4980567;28;45405;-48
2022/05/15 01:55:30;;;;;;;;;4.00;4.00;;;;;-147.14;100.00;58812.66;4980300;28;45440;-47
2022/05/15 01:57:56;;;;;;;;;6.00;4.67;;;;;-147.14;100.00;58812.66;4979541;28;64150;-48
2022/05/15 02:00:23;;;;;;;;;4.33;3.00;;;;;-147.14;100.00;58812.66;4979648;28;63967;-47
2022/05/15 02:02:49;;;;;;;;;5.00;4.67;;;;;-147.14;100.00;58812.66;4980493;28;45461;-47
2022/05/15 02:05:15;;;;;;;;;6.67;5.33;;;;;-147.14;100.00;58812.66;4981108;28;45736;-47
2022/05/15 02:07:40;;;;;;;;;4.33;4.00;;;;;-147.14;100.00;58812.66;4979848;28;45705;-50
2022/05/15 02:10:06;;;;;;;;;3.67;3.67;;;;;-147.14;100.00;58812.66;4982052;28;45512;-49
2022/05/15 02:12:31;;;;;;;;;5.00;5.00;;;;;-147.14;100.00;58812.66;4979822;28;45361;-48
2022/05/15 02:14:57;;;;;;;;;4.00;4.00;;;;;-147.14;100.00;58812.66;4980157;28;62750;-48
2022/05/15 02:17:23;;;;;;;;;5.00;5.00;;;;;-147.14;100.00;58812.66;4980374;28;46178;-48
2022/05/15 02:19:49;;;;;;;;;5.00;5.00;;;;;-147.14;100.00;58812.66;4979846;28;45570;-49
2022/05/15 02:22:14;;;;;;;;;4.33;4.33;;;;;-147.14;100.00;58812.66;4979826;28;59927;-47
2022/05/15 02:24:39;;;;;;;;;4.33;3.33;;;;;-147.14;100.00;58812.66;4979181;28;61778;-47
2022/05/15 02:27:05;;;;;;;;;5.33;4.67;;;;;-147.14;100.00;58812.66;4980115;28;46186;-47
2022/05/15 02:29:31;;;;;;;;;5.00;5.00;;;;;-147.14;100.00;58812.66;4979450;28;45606;-48
2022/05/15 02:31:57;;;;;;;;;4.67;4.67;;;;;-147.14;100.00;58812.66;4980733;28;45433;-49
2022/05/15 02:34:22;;;;;;;;;6.00;4.33;;;;;-147.14;100.00;58812.66;4980420;28;45202;-47
2022/05/15 02:36:47;;;;;;;;;6.00;5.33;;;;;-147.14;100.00;58812.66;4978713;28;63025;-48
2022/05/15 02:39:13;;;;;;;;;6.00;5.00;;;;;-147.14;100.00;58812.66;4979614;28;63060;-48
2022/05/15 02:41:38;;;;;;;;;5.33;5.00;;;;;-147.14;100.00;58812.66;4979436;28;47307;-48
2022/05/15 02:44:03;;;;;;;;;7.33;6.00;;;;;-147.14;100.00;58812.66;4978715;28;62849;-49
2022/05/15 02:46:29;;;;;;;;;3.33;3.33;;;;;-147.14;100.00;58812.66;4978682;28;67446;-50
2022/05/15 02:51:38;;;;;;;;;4.67;4.67;;;;;-147.14;100.00;58812.66;4979846;28;45228;-49
2022/05/15 02:54:03;;;;;;;;;4.00;4.00;;;;;-147.14;100.00;58812.66;4979365;28;61593;-50
2022/05/15 02:56:31;;;;;;;;;6.00;6.00;;;;;-147.14;100.00;58812.66;4977947;28;60056;-49
2022/05/15 02:58:56;;;;;;;;;4.33;4.33;;;;;-147.14;100.00;58812.66;4979462;28;45527;-50
2022/05/15 03:01:23;;;;;;;;;6.00;4.33;;;;;-147.14;100.00;58812.66;4979692;28;46680;-50
2022/05/15 03:03:48;;;;;;;;;7.00;5.33;;;;;-147.14;100.00;58812.66;4979142;28;45541;-51
2022/05/15 03:06:14;;;;;;;;;5.67;5.67;;;;;-147.14;100.00;58812.66;4979572;28;46175;-49
2022/05/15 03:08:43;;;;;;;;;5.33;5.33;;;;;-147.14;100.00;58812.66;4979058;28;45366;-49
2022/05/15 03:11:08;;;;;;;;;5.00;5.00;;;;;-147.14;100.00;58812.66;4979736;28;45311;-51
2022/05/15 03:13:35;;;;;;;;;6.00;5.00;;;;;-147.14;100.00;58812.66;4979174;28;46112;-48
2022/05/15 03:16:01;;;;;;;;;4.33;4.33;;;;;-147.14;100.00;58812.66;4979321;28;46311;-50
2022/05/15 03:18:26;;;;;;;;;3.67;3.67;;;;;-147.14;100.00;58812.66;4979145;28;45454;-49
2022/05/15 03:20:52;;;;;;;;;8.00;4.33;;;;;-147.14;100.00;58812.66;4978352;28;62575;-47
2022/05/15 03:23:17;;;;;;;;;5.67;4.33;;;;;-147.14;100.00;58812.66;4979066;28;60972;-49
2022/05/15 03:25:42;;;;;;;;;4.67;3.00;;;;;-147.14;100.00;58812.66;4978813;28;46070;-51
2022/05/15 03:28:11;;;;;;;;;4.67;3.00;;;;;-147.14;100.00;58812.66;4979106;28;45431;-52
2022/05/15 03:30:37;;;;;;;;;3.00;3.00;;;;;-147.14;100.00;58812.66;4979148;28;45468;-48
2022/05/15 03:33:03;;;;;;;;;3.67;3.67;;;;;-147.14;100.00;58812.66;4979374;28;45338;-49
2022/05/15 03:35:29;;;;;;;;;4.67;4.33;;;;;-147.14;100.00;58812.66;4979149;28;46039;-48
2022/05/15 03:37:54;;;;;;;;;4.00;4.00;;;;;-147.14;100.00;58812.66;4979058;28;45295;-48
2022/05/15 03:40:19;;;;;;;;;4.67;4.00;;;;;-147.14;100.00;58812.66;4979107;28;58319;-49
2022/05/15 03:42:45;;;;;;;;;5.00;2.67;;;;;-147.14;100.00;58812.66;4978531;28;45279;-51
2022/05/15 03:45:10;;;;;;;;;4.00;3.67;;;;;-147.14;100.00;58812.66;4978515;28;63502;-50
2022/05/15 03:47:36;;;;;;;;;2.33;2.33;;;;;-147.14;100.00;58812.66;4978499;28;45484;-48
2022/05/15 03:50:04;;;;;;;;;6.67;4.00;;;;;-147.14;100.00;58812.66;4979230;28;45817;-51
2022/05/15 03:52:30;;;;;;;;;4.67;4.00;;;;;-147.14;100.00;58812.66;4970168;28;45230;-48
2022/05/15 03:54:55;;;;;;;;;4.00;2.67;;;;;-147.14;100.00;58812.66;4978061;28;64670;-50
2022/05/15 03:57:20;;;;;;;;;3.00;3.00;;;;;-147.14;100.00;58812.66;4977926;28;65393;-49
2022/05/15 03:59:46;;;;;;;;;3.33;3.00;;;;;-147.14;100.00;58812.66;4978724;28;45231;-50
2022/05/15 04:02:11;;;;;;;;;3.67;3.67;;;;;-147.14;100.00;58812.66;4978476;28;62962;-50
2022/05/15 04:04:38;;;;;;;;;4.67;3.67;;;;;-147.14;100.00;58812.66;4978751;28;46352;-50
2022/05/15 04:07:04;;;;;;;;;2.00;2.00;;;;;-147.14;100.00;58812.66;4978764;28;45345;-51
2022/05/15 04:09:31;;;;;;;;;4.67;4.67;;;;;-147.14;100.00;58812.66;4979206;28;45677;-49
2022/05/15 04:11:56;;;;;;;;;4.33;3.33;;;;;-147.14;100.00;58812.66;4982533;28;45331;-48
2022/05/15 04:14:21;;;;;;;;;3.00;3.00;;;;;-147.14;100.00;58812.66;4980918;28;65375;-48
2022/05/15 04:16:47;;;;;;;;;5.33;3.00;;;;;-147.14;100.00;58812.66;4980524;28;67960;-48
2022/05/15 04:19:12;;;;;;;;;4.00;4.00;;;;;-147.14;100.00;58812.66;4982316;28;45620;-52
2022/05/15 04:21:40;;;;;;;;;4.00;4.00;;;;;-147.14;100.00;58812.66;4981949;28;47291;-48
2022/05/15 04:24:07;;;;;;;;;3.00;2.67;;;;;-147.14;100.00;58812.66;4982306;28;46281;-48
2022/05/15 04:26:33;;;;;;;;;4.00;4.00;;;;;-147.14;100.00;58812.66;4981952;28;45271;-48
2022/05/15 04:28:58;;;;;;;;;4.00;4.00;;;;;-147.14;100.00;58812.66;4978735;28;45543;-47
2022/05/15 04:31:23;;;;;;;;;3.00;3.00;;;;;-147.14;100.00;58812.66;4982278;28;45341;-48
2022/05/15 04:33:49;;;;;;;;;4.00;2.00;;;;;-147.14;100.00;58812.66;4980999;28;66808;-49
2022/05/15 04:36:14;;;;;;;;;4.33;4.00;;;;;-147.14;100.00;58812.66;4982102;28;45561;-48
2022/05/15 04:38:40;;;;;;;;;4.00;4.00;;;;;-147.14;100.00;58812.66;4981045;28;60693;-50
2022/05/15 04:41:05;;;;;;;;;4.00;4.00;;;;;-147.14;100.00;58812.66;4982030;28;45472;-48
2022/05/15 04:43:30;;;;;;;;;5.33;5.33;;;;;-147.14;100.00;58812.66;4981329;28;46874;-49
2022/05/15 04:45:56;;;;;;;;;4.67;4.67;;;;;-147.14;100.00;58812.66;4981432;28;64903;-48
2022/05/15 04:48:21;;;;;;;;;4.00;3.67;;;;;-147.14;100.00;58812.66;4981702;28;45381;-48
2022/05/15 04:50:46;;;;;;;;;3.67;3.67;;;;;-147.14;100.00;58812.66;4981370;28;48759;-48
2022/05/15 04:53:12;;;;;;;;;3.00;3.00;;;;;-147.14;100.00;58812.66;4980867;28;64729;-47
2022/05/15 04:55:37;;;;;;;;;4.67;3.00;;;;;-147.14;100.00;58812.66;4980423;28;64443;-46
2022/05/15 04:58:03;;;;;;;;;4.00;4.00;;;;;-147.14;100.00;58812.66;4981493;28;45816;-47
2022/05/15 05:00:28;;;;;;;;;4.00;4.00;;;;;-147.14;100.00;58812.66;4980985;28;45468;-47
2022/05/15 05:02:54;;;;;;;;;4.33;3.33;;;;;-147.14;100.00;58812.66;4982037;28;46325;-48
2022/05/15 05:05:19;;;;;;;;;4.33;4.00;;;;;-147.14;100.00;58812.66;4981680;28;45429;-48
2022/05/15 05:07:44;;;;;;;;;3.33;3.00;;;;;-147.14;100.00;58812.66;4981094;28;45278;-48
2022/05/15 05:10:12;;;;;;;;;6.33;5.00;;;;;-147.14;100.00;58812.66;4981369;28;45525;-47
2022/05/15 05:12:37;;;;;;;;;5.67;5.33;;;;;-147.14;100.00;58812.66;4981443;28;46302;-47
2022/05/15 05:15:04;;;;;;;;;4.00;4.00;;;;;-147.14;100.00;58812.66;4980717;28;60847;-48
2022/05/15 05:17:29;;;;;;;;;7.67;3.33;;;;;-147.14;100.00;58812.66;4980842;28;45699;-47
2022/05/15 05:19:55;;;;;;;;;7.33;4.00;;;;;-147.14;100.00;58812.66;4980476;28;60854;-47
2022/05/15 05:22:20;;;;;;;;;0.67;0.67;;;;;-147.14;100.00;58812.66;4979183;28;67862;-46
2022/05/15 05:24:45;;;;;;;;;4.33;4.33;;;;;-147.14;100.00;58812.66;4980183;28;64280;-48
2022/05/15 05:27:11;;;;;;;;;5.00;4.33;;;;;-147.14;100.00;58812.66;4981437;28;52906;-46
2022/05/15 05:29:36;;;;;;;;;4.67;4.00;;;;;-147.14;100.00;58812.66;4980345;28;45670;-47
2022/05/15 05:32:02;;;;;;;;;5.67;4.00;;;;;-147.14;100.00;58812.66;4980420;28;68082;-49
2022/05/15 05:34:28;;;;;;;;;3.33;3.33;;;;;-147.14;100.00;58812.66;4980490;28;45519;-49
2022/05/15 05:36:53;;;;;;;;;4.00;4.00;;;;;-147.14;100.00;58812.66;4980666;28;61033;-49
2022/05/15 05:39:20;;;;;;;;;2.33;2.00;;;;;-147.14;100.00;58812.66;4981423;28;45389;-48
2022/05/15 05:41:45;;;;;;;;;5.00;4.33;;;;;-147.14;100.00;58812.66;4980953;28;46298;-50
2022/05/15 05:44:11;;;;;;;;;5.00;4.67;;;;;-147.14;100.00;58812.66;4969550;28;65278;-51
2022/05/15 05:46:37;;;;;;;;;3.67;3.33;;;;;-147.14;100.00;58812.66;4975829;28;45290;-47
2022/05/15 05:49:02;;;;;;;;;5.00;4.00;;;;;-147.14;100.00;58812.66;4981130;28;45227;-50
2022/05/15 05:51:28;;;;;;;;;6.00;4.00;;;;;-147.14;100.00;58812.66;4979226;28;65784;-49
2022/05/15 05:53:53;;;;;;;;;7.33;5.00;;;;;-147.14;100.00;58812.66;4979776;28;45293;-50
2022/05/15 05:56:18;;;;;;;;;8.33;6.00;;;;;-147.14;100.00;58812.66;4981046;28;45267;-52
2022/05/15 05:58:45;;;;;;;;;4.33;4.33;;;;;-147.14;100.00;58812.66;4978325;28;62728;-51
2022/05/15 06:01:10;;;;;;;;;6.00;6.00;;;;;-147.14;100.00;58812.66;4980243;28;46181;-50
2022/05/15 06:06:20;;;;;;;;;4.00;4.00;;;;;-147.14;100.00;58812.66;4980213;28;46825;-50
2022/05/15 06:08:45;;;;;;;;;5.33;4.67;;;;;-147.14;100.00;58812.66;4977990;28;59376;-48
2022/05/15 06:11:12;;;;;;;;;6.00;6.00;;;;;-147.14;100.00;58812.66;4976761;28;45989;-50
2022/05/15 06:13:39;;;;;;;;;6.67;5.00;;;;;-147.14;100.00;58812.66;4980006;28;45812;-52
2022/05/15 06:16:05;;;;;;;;;4.00;4.00;;;;;-147.14;100.00;58812.66;4977206;28;45286;-50
2022/05/15 06:18:31;;;;;;;;;5.67;4.00;;;;;-147.14;100.00;58812.66;4976978;28;45381;-48
2022/05/15 06:20:56;;;;;;;;;3.67;3.67;;;;;-147.14;100.00;58812.66;4979823;28;46292;-50
2022/05/15 06:23:22;;;;;;;;;5.67;4.00;;;;;-147.14;100.00;58812.66;4979826;28;53705;-52
2022/05/15 06:25:47;;;;;;;;;5.67;4.33;;;;;-147.14;100.00;58812.66;4980391;28;45421;-52
2022/05/15 06:28:13;;;;;;;;;5.33;4.67;;;;;-147.14;100.00;58812.66;4980058;28;45528;-49
2022/05/15 06:30:38;;;;;;;;;10.67;5.00;;;;;-147.14;100.00;58812.66;4979472;28;55970;-51
2022/05/15 06:33:06;;;;;;;;;5.67;4.67;;;;;-147.14;100.00;58812.66;4979528;28;45231;-49
2022/05/15 06:35:31;;;;;;;;;6.00;6.00;;;;;-147.14;100.00;58812.66;4979461;28;45541;-49
2022/05/15 06:38:00;;;;;;;;;4.67;4.67;;;;;-147.14;100.00;58812.66;4976993;28;62036;-49
2022/05/15 06:40:26;;;;;;;;;6.00;6.00;;;;;-147.14;100.00;58812.66;4980353;28;45487;-49
2022/05/15 06:42:52;;;;;;;;;7.33;5.67;;;;;-147.14;100.00;58812.66;4979244;28;45339;-52
2022/05/15 06:45:18;;;;;;;;;10.33;6.67;;;;;-147.14;100.00;58812.66;4980281;28;45710;-49
2022/05/15 06:47:43;;;;;;;;;6.67;5.00;;;;;-147.14;100.00;58812.66;4979582;28;45867;-49
2022/05/15 06:50:09;;;;;;;;;4.33;4.33;;;;;-147.14;100.00;58812.66;4978510;28;45612;-49
2022/05/15 06:52:36;;;;;;;;;7.00;5.00;;;;;-147.14;100.00;58812.66;4978874;28;45599;-49
2022/05/15 06:55:04;;;;;;;;;6.00;5.00;;;;;-147.14;100.00;58812.66;4979519;28;45325;-49
2022/05/15 06:57:29;;;;;;;;;5.67;5.00;;;;;-147.14;100.00;58812.66;4979326;28;45366;-51
2022/05/15 06:59:56;;;;;;;;;7.67;5.67;;;;;-147.14;100.00;58812.66;4978041;28;46029;-52
2022/05/15 07:02:25;;;;;;;;;4.00;4.00;;;;;-147.14;100.00;58812.66;4979484;28;45509;-50
2022/05/15 07:04:52;;;;;;;;;8.33;5.00;;;;;-147.14;100.00;58812.66;4978709;28;45412;-49
2022/05/15 07:07:18;;;;;;;;;4.00;4.00;;;;;-147.14;100.00;58812.66;4978200;28;45727;-51
2022/05/15 07:09:43;;;;;;;;;7.00;7.00;;;;;-147.14;100.00;58812.66;4978108;28;45555;-48
2022/05/15 07:12:09;;;;;;;;;8.00;6.00;;;;;-147.14;100.00;58812.66;4974500;28;60719;-49
2022/05/15 07:14:35;;;;;;;;;6.00;6.00;;;;;-147.14;100.00;58812.66;4974116;28;45565;-49
2022/05/15 07:17:00;;;;;;;;;7.00;6.67;;;;;-147.14;100.00;58812.66;4984182;28;45468;-49
2022/05/15 07:19:26;;;;;;;;;9.33;6.67;;;;;-147.14;100.00;58812.66;4974650;28;47197;-50
2022/05/15 07:21:51;;;;;;;;;7.00;6.00;;;;;-147.14;100.00;58812.66;4980425;28;45153;-49
2022/05/15 07:24:16;;;;;;;;;8.67;6.00;;;;;-147.14;100.00;58812.66;4980130;28;60422;-49
2022/05/15 07:26:44;;;;;;;;;6.67;5.00;;;;;-147.14;100.00;58812.66;4978221;28;45448;-49
2022/05/15 07:29:11;;;;;;;;;5.67;5.67;;;;;-147.14;100.00;58812.66;4977755;28;46243;-50
2022/05/15 07:31:36;;;;;;;;;5.00;5.00;;;;;-147.14;100.00;58812.66;4978730;28;45243;-49
2022/05/15 07:34:02;;;;;;;;;5.00;5.00;;;;;-147.14;100.00;58812.66;4960413;28;45691;-52
2022/05/15 07:36:27;;;;;;;;;7.00;7.00;;;;;-147.14;100.00;58812.66;4978177;28;59728;-50
2022/05/15 07:38:52;;;;;;;;;6.00;6.00;;;;;-147.14;100.00;58812.66;4978246;28;45473;-49
2022/05/15 07:41:18;;;;;;;;;7.00;5.00;;;;;-147.14;100.00;58812.66;4978285;28;62757;-48
2022/05/15 07:43:43;;;;;;;;;5.33;5.33;;;;;-147.14;100.00;58812.66;4975392;28;59687;-51
2022/05/15 07:46:09;;;;;;;;;4.67;4.67;;;;;-147.14;100.00;58812.66;4976507;28;45488;-48
2022/05/15 07:48:34;;;;;;;;;5.67;4.33;;;;;-147.14;100.00;58812.66;4976649;28;46230;-48
2022/05/15 07:50:59;;;;;;;;;4.67;3.33;;;;;-147.14;100.00;58812.66;4985911;28;51951;-47
2022/05/15 07:53:25;;;;;;;;;3.33;3.33;;;;;-147.14;100.00;58812.66;4981199;28;45923;-49
2022/05/15 07:55:51;;;;;;;;;7.00;5.00;;;;;-147.14;100.00;58812.66;4960939;28;45532;-48
2022/05/15 07:58:16;;;;;;;;;5.00;3.33;;;;;-147.14;100.00;58812.66;4965446;28;46278;-49
2022/05/15 08:00:42;;;;;;;;;6.00;4.00;;;;;-147.14;100.00;58812.66;4976435;28;65142;-49
2022/05/15 08:03:10;;;;;;;;;6.00;5.00;;;;;-147.14;100.00;58812.66;4978207;28;57710;-49
2022/05/15 08:08:20;;;;;;;;;3.33;3.33;;;;;-147.14;100.00;58812.66;4977841;28;45772;-50
2022/05/15 08:10:46;;;;;;;;;4.33;4.33;;;;;-147.14;100.00;58812.66;4976774;28;45433;-49
2022/05/15 08:13:17;;;;;;;;;4.33;4.00;;;;;-147.14;100.00;58812.66;4964887;28;45450;-51
2022/05/15 08:15:43;;;;;;;;;3.33;2.67;;;;;-147.14;100.00;58812.66;4974239;28;47226;-49
2022/05/15 08:23:42;;;;;;;;;5.00;4.00;;;;;-147.14;100.00;58812.66;4971022;28;45342;-49
2022/05/15 08:26:08;;;;;;;;;4.67;4.67;;;;;-147.14;100.00;58812.66;4978375;28;45577;-49
2022/05/15 08:28:36;;;;;;;;;3.33;2.67;;;;;-147.14;100.00;58812.66;4970631;28;45530;-47
2022/05/15 08:31:04;;;;;;;;;4.33;3.33;;;;;-147.14;100.00;58812.66;4974401;28;45441;-48
2022/05/15 08:33:30;;;;;;;;;3.00;3.00;;;;;-147.14;100.00;58812.66;4968478;28;45637;-48
2022/05/15 08:35:55;;;;;;;;;3.00;3.00;;;;;-147.14;100.00;58812.66;4977109;28;45500;-49
2022/05/15 08:38:21;;;;;;;;;4.33;2.33;;;;;-147.14;100.00;58812.66;4977332;28;46346;-50
2022/05/15 08:41:03;;;;;;;;;2.33;2.33;;;;;-147.14;100.00;58812.66;4977913;28;45350;-49
2022/05/15 08:43:50;;;;;;;;;4.33;4.00;;;;;-147.14;100.00;58812.66;4967260;28;45539;-52
2022/05/15 08:46:28;;;;;;;;;3.67;3.67;;;;;-147.14;100.00;58812.66;4975728;28;45459;-52
2022/05/15 08:49:07;;;;;;;;;9.67;7.33;;;;;-147.14;100.00;58812.66;4977256;28;46277;-52
2022/05/15 08:51:33;;;;;;;;;2.67;2.33;;;;;-147.14;100.00;58812.66;4959528;28;45525;-49
2022/05/15 08:54:02;;;;;;;;;7.67;6.00;;;;;-147.14;100.00;58812.66;4976966;28;45346;-51
2022/05/15 08:56:30;;;;;;;;;2.00;2.00;;;;;-147.14;100.00;58812.66;4963137;28;45923;-52
2022/05/15 08:58:57;;;;;;;;;3.33;3.33;;;;;-147.14;100.00;58812.66;4956822;28;45478;-52
2022/05/15 09:01:27;;;;;;;;;4.33;2.33;;;;;-147.14;100.00;58812.66;4963773;28;45361;-48
2022/05/15 09:03:54;;;;;;;;;2.33;2.33;;;;;-147.14;100.00;58812.66;4963441;28;45345;-51
2022/05/15 09:06:38;;;;;;;;;3.67;3.67;;;;;-147.14;100.00;58812.66;4973904;28;45349;-52
2022/05/15 09:09:27;;;;;;;;;4.33;3.00;;;;;-147.14;100.00;58812.66;4981420;28;47129;-53
2022/05/15 09:12:03;;;;;;;;;4.00;3.00;;;;;-147.14;100.00;58812.66;4964348;28;45679;-49
2022/05/15 09:14:48;;;;;;;;;3.67;2.67;;;;;-147.14;100.00;58812.66;4968649;28;45378;-50
2022/05/15 09:17:36;;;;;;;;;3.33;3.33;;;;;-147.14;100.00;58812.66;4982181;28;45339;-51
2022/05/15 09:20:15;;;;;;;;;6.67;4.00;;;;;-147.14;100.00;58812.66;4972257;28;45363;-48
2022/05/15 09:22:45;;;;;;;;;4.67;2.67;;;;;-147.14;100.00;58812.66;4963550;28;45354;-49
2022/05/15 09:25:20;;;;;;;;;1.33;1.33;;;;;-147.14;100.00;58812.66;4981783;28;45382;-53
2022/05/15 09:28:06;;;;;;;;;2.00;2.00;;;;;-147.14;100.00;58812.66;4981049;28;45874;-49
2022/05/15 09:30:43;;;;;;;;;1.33;1.33;;;;;-147.14;100.00;58812.66;4980986;28;46241;-49
2022/05/15 09:33:21;;;;;;;;;2.33;2.00;;;;;-147.14;100.00;58812.66;4981623;28;45505;-51
2022/05/15 09:35:47;;;;;;;;;1.50;1.50;;;;;-147.14;100.00;58812.66;4980978;28;45445;-48
2022/05/15 09:38:29;;;;;;;;;1.00;1.00;;;;;-147.14;100.00;58812.66;4978772;28;62692;-49
2022/05/15 09:43:55;;;;;;;;;2.00;2.00;;;;;-147.14;100.00;58812.66;4966279;28;45728;-48
2022/05/15 09:46:22;;;;;;;;;1.25;1.25;;;;;-147.14;100.00;58812.66;4981538;28;45380;-49
2022/05/15 09:49:06;;;;;;;;;2.00;1.00;;;;;-147.14;100.00;58812.66;4963292;28;45333;-49
2022/05/15 09:51:47;;;;;;;;;0.67;0.67;;;;;-147.14;100.00;58812.66;4980464;28;46290;-49
2022/05/15 09:54:34;;;;;;;;;2.00;2.00;;;;;-147.14;100.00;58812.66;4977757;28;45428;-49
2022/05/15 09:57:27;;;;;;;;;3.75;3.50;;;;;-147.14;100.00;58812.66;4977429;28;45233;-50
2022/05/15 09:59:56;;;;;;;;;3.67;3.00;;;;;-147.14;100.00;58812.66;4980990;28;45410;-49
2022/05/15 10:02:49;;;;;;;;;3.33;2.00;;;;;-147.14;100.00;58812.66;4980734;28;46322;-49
2022/05/15 10:05:14;;;;;;;;;2.00;1.00;;;;;-147.14;100.00;58812.66;4974110;28;45144;-49
2022/05/15 10:07:46;;;;;;;;;4.00;2.75;;;;;-147.14;100.00;58812.66;4979602;28;45438;-49
2022/05/15 10:10:29;;;;;;;;;3.00;3.00;;;;;-147.14;100.00;58812.66;4980796;28;45275;-49
2022/05/15 10:12:59;;;;;;;;;1.00;1.00;;;;;-147.14;100.00;58812.66;4963296;28;46324;-48
2022/05/15 10:15:26;;;;;;;;;3.00;2.00;;;;;-147.14;100.00;58812.66;4963654;28;45220;-47
2022/05/15 10:17:56;;;;;;;;;2.75;2.75;;;;;-147.14;100.00;58812.66;4963081;28;45365;-48
2022/05/15 10:20:26;;;;;;;;;1.67;1.00;;;;;-147.14;100.00;58812.66;4981041;28;45504;-48
2022/05/15 10:23:03;;;;;;;;;5.00;2.00;;;;;-147.14;100.00;58812.66;4980118;28;45408;-49
2022/05/15 10:25:39;;;;;;;;;2.25;1.50;;;;;-147.14;100.00;58812.66;4980145;28;45357;-49
2022/05/15 10:28:23;;;;;;;;;2.67;2.67;;;;;-147.14;100.00;58812.66;4963127;28;45353;-50
2022/05/15 10:31:01;;;;;;;;;1.00;1.00;;;;;-147.14;100.00;58812.66;4980151;28;45443;-48
2022/05/15 10:33:27;;;;;;;;;2.00;2.00;;;;;-147.14;100.00;58812.66;4980615;28;45309;-49
2022/05/15 10:36:20;;;;;;;;;1.67;1.67;;;;;-147.14;100.00;58812.66;4980667;28;45397;-47
2022/05/15 10:39:04;;;;;;;;;1.75;1.00;;;;;-147.14;100.00;58812.66;4980236;28;45323;-49
2022/05/15 10:41:54;;;;;;;;;1.75;1.75;;;;;-147.14;100.00;58812.66;4980253;28;45427;-49
2022/05/15 10:44:48;;;;;;;;;3.00;3.00;;;;;-147.14;100.00;58812.66;4968023;28;46343;-51
2022/05/15 10:47:23;;;;;;;;;2.00;2.00;;;;;-147.14;100.00;58812.66;4980349;28;45641;-49
2022/05/15 10:50:08;;;;;;;;;2.33;1.33;;;;;-147.14;100.00;58812.66;4962775;28;45408;-48
2022/05/15 10:57:21;;;;;;;;;2.00;2.00;;;;;-147.14;100.00;58812.66;4968932;28;45278;-48
2022/05/15 10:59:01;;;;;;;;;1.25;1.25;;;;;-147.14;100.00;58812.66;4962990;28;45487;-50
2022/05/15 11:01:36;;;;;;;;;6.50;2.00;;;;;-147.14;100.00;58812.66;4962787;28;45281;-48
2022/05/15 11:04:46;;;;;;;;;2.00;2.00;;;;;-147.14;100.00;58812.66;4970663;28;45397;-49
2022/05/15 11:07:41;;;;;;;;;4.33;2.00;;;;;-147.14;100.00;58812.66;4950316;28;45370;-49
2022/05/15 11:10:20;;;;;;;;;3.67;2.00;;;;;-147.14;100.00;58812.66;4962281;28;45368;-49
2022/05/15 11:13:10;;;;;;;;;4.00;1.00;;;;;-147.14;100.00;58812.66;4979645;28;45247;-50
2022/05/15 11:15:58;;;;;;;;;3.00;3.00;;;;;-147.14;100.00;58812.66;4969902;28;45366;-49
2022/05/15 11:18:32;;;;;;;;;6.00;4.67;;;;;-147.14;100.00;58812.66;4962303;28;45324;-50
2022/05/15 11:21:22;;;;;;;;;2.00;2.00;;;;;-147.14;100.00;58812.66;4979952;28;45350;-50
2022/05/15 11:23:55;;;;;;;;;4.25;4.00;;;;;-147.14;100.00;58812.66;4979928;28;45460;-49
2022/05/15 11:26:27;;;;;;;;;2.00;2.00;;;;;-147.14;100.00;58812.66;4978412;28;45307;-50
2022/05/15 11:28:56;;;;;;;;;2.25;2.25;;;;;-147.14;100.00;58812.66;4959435;28;45779;-51
2022/05/15 11:31:28;;;;;;;;;1.25;1.00;;;;;-147.14;100.00;58812.66;4976728;28;45291;-50
2022/05/15 11:34:02;;;;;;;;;3.33;2.00;;;;;-147.14;100.00;58812.66;4962192;28;45370;-51
2022/05/15 11:36:39;;;;;;;;;2.00;2.00;;;;;-147.14;100.00;58812.66;4973948;28;45617;-51
2022/05/15 11:39:14;;;;;;;;;2.00;2.00;;;;;-147.14;100.00;58812.66;4979351;28;46093;-51